Terminal Aerodrome Forecast
Issued by NWS Wilmington, OH

Home | Current Version | Previous Version | Text Only | Print | Product List | Glossary On
Versions: 1 2 3 4 5 6 7 8 9 10 11 12 13 14 15
154
FTUS41 KILN 140538
TAFDAY
TAF
KDAY 140538Z 1406/1506 VRB03KT P6SM BKN200
     FM141500 13009KT P6SM OVC100
     FM142000 12010KT 4SM -SN SCT015 OVC050
     FM142200 12011KT 3SM -SN BKN015 OVC040
      TEMPO 1422/1501 1SM -SN
     FM150500 14010KT 3SM -SN OVC008=

USA.gov is the U.S. government's official web portal to all federal, state and local government web resources and services.